RJFR/KKJ METAR and TAF weather

Enter ICAO airport designator
Station Type Date Time Source
RJFR METAR 2020/04/10 17:00 UTC NOAA

RJFR 101700Z 31004KT 9999 FEW040 SCT080 10/02 Q1023


Station Type Date Time Source
RJFR Decoded METAR 2020/04/10 17:00 UTC NOAA

Kitakyushu Airport, Japan (RJFR) 33-50N 130-57E 6M
Apr 10, 2020 - 01:00 PM EDT / 2020.04.10 1700 UTC
Wind: from the NW (310 degrees) at 5 MPH (4 KT):0
Visibility: greater than 7 mile(s):0
Sky conditions: partly cloudy
Temperature: 50 F (10 C)
Dew Point: 35 F (2 C)
Relative Humidity: 57%
Pressure (altimeter): 30.21 in. Hg (1023 hPa)
ob: RJFR 101700Z 31004KT 9999 FEW040 SCT080 10/02 Q1023
cycle: 17

Station Type Date Time Source
RJFR TAF 2020/04/10 18:00 UTC NOAA

TAF RJFR 101706Z 1018/1200 03004KT 9999 FEW030 SCT050
BECMG 1023/1101 13006KT
TEMPO 1118/1121 4000 -SHRA BR
BECMG 1121/1200 05011KT
TEMPO 1121/1200 3000 SHRA BR FEW005 BKN008 BKN010

Example: see airport list